sensor_id;sensor_type;location;lat;lon;timestamp;P1;durP1;ratioP1;P2;durP2;ratioP2
10657;SDS011;5377;43.276;26.930;2023-07-13T00:00:47;11.88;;;7.32;;
10657;SDS011;5377;43.276;26.930;2023-07-13T00:03:15;8.00;;;6.60;;
10657;SDS011;5377;43.276;26.930;2023-07-13T00:05:42;8.70;;;6.47;;
10657;SDS011;5377;43.276;26.930;2023-07-13T00:08:10;8.10;;;6.82;;
10657;SDS011;5377;43.276;26.930;2023-07-13T00:10:40;7.80;;;7.00;;
10657;SDS011;5377;43.276;26.930;2023-07-13T00:13:08;7.65;;;6.13;;
10657;SDS011;5377;43.276;26.930;2023-07-13T00:15:35;10.65;;;7.35;;
10657;SDS011;5377;43.276;26.930;2023-07-13T00:18:02;7.10;;;6.40;;
10657;SDS011;5377;43.276;26.930;2023-07-13T00:20:29;7.75;;;6.20;;
10657;SDS011;5377;43.276;26.930;2023-07-13T00:22:57;9.45;;;6.25;;
10657;SDS011;5377;43.276;26.930;2023-07-13T00:25:25;7.55;;;6.97;;
10657;SDS011;5377;43.276;26.930;2023-07-13T00:27:53;6.93;;;6.45;;
10657;SDS011;5377;43.276;26.930;2023-07-13T00:30:21;6.63;;;6.10;;
10657;SDS011;5377;43.276;26.930;2023-07-13T00:32:49;7.57;;;7.05;;
10657;SDS011;5377;43.276;26.930;2023-07-13T00:35:16;8.27;;;7.50;;
10657;SDS011;5377;43.276;26.930;2023-07-13T00:37:44;8.73;;;7.93;;
10657;SDS011;5377;43.276;26.930;2023-07-13T00:40:11;8.10;;;7.40;;
10657;SDS011;5377;43.276;26.930;2023-07-13T00:42:41;8.10;;;7.47;;
10657;SDS011;5377;43.276;26.930;2023-07-13T00:48:08;11.35;;;7.53;;
10657;SDS011;5377;43.276;26.930;2023-07-13T00:50:36;8.70;;;7.03;;
10657;SDS011;5377;43.276;26.930;2023-07-13T00:53:04;8.82;;;7.93;;
10657;SDS011;5377;43.276;26.930;2023-07-13T00:55:30;7.88;;;7.25;;
10657;SDS011;5377;43.276;26.930;2023-07-13T00:57:59;9.40;;;7.78;;
10657;SDS011;5377;43.276;26.930;2023-07-13T01:00:27;8.80;;;7.88;;
10657;SDS011;5377;43.276;26.930;2023-07-13T01:02:55;12.43;;;8.77;;
10657;SDS011;5377;43.276;26.930;2023-07-13T01:05:23;14.50;;;9.50;;
10657;SDS011;5377;43.276;26.930;2023-07-13T01:07:51;9.60;;;8.73;;
10657;SDS011;5377;43.276;26.930;2023-07-13T01:10:21;9.48;;;8.57;;
10657;SDS011;5377;43.276;26.930;2023-07-13T01:12:49;8.40;;;7.55;;
10657;SDS011;5377;43.276;26.930;2023-07-13T01:18:07;9.20;;;8.38;;
10657;SDS011;5377;43.276;26.930;2023-07-13T01:20:37;15.75;;;14.15;;
10657;SDS011;5377;43.276;26.930;2023-07-13T01:23:07;11.55;;;10.57;;
10657;SDS011;5377;43.276;26.930;2023-07-13T01:25:35;14.23;;;12.88;;
10657;SDS011;5377;43.276;26.930;2023-07-13T01:28:03;13.98;;;12.20;;
10657;SDS011;5377;43.276;26.930;2023-07-13T01:30:32;11.15;;;9.60;;
10657;SDS011;5377;43.276;26.930;2023-07-13T01:32:58;10.68;;;9.75;;
10657;SDS011;5377;43.276;26.930;2023-07-13T01:35:25;9.50;;;8.43;;
10657;SDS011;5377;43.276;26.930;2023-07-13T01:37:52;9.18;;;8.27;;
10657;SDS011;5377;43.276;26.930;2023-07-13T01:40:21;14.05;;;11.20;;
10657;SDS011;5377;43.276;26.930;2023-07-13T01:42:48;13.98;;;10.57;;
10657;SDS011;5377;43.276;26.930;2023-07-13T01:45:15;10.98;;;8.90;;
10657;SDS011;5377;43.276;26.930;2023-07-13T01:47:42;11.63;;;8.52;;
10657;SDS011;5377;43.276;26.930;2023-07-13T01:50:09;9.48;;;8.38;;
10657;SDS011;5377;43.276;26.930;2023-07-13T01:52:36;9.27;;;8.48;;
10657;SDS011;5377;43.276;26.930;2023-07-13T01:55:04;10.63;;;9.52;;
10657;SDS011;5377;43.276;26.930;2023-07-13T01:57:32;9.65;;;8.65;;
10657;SDS011;5377;43.276;26.930;2023-07-13T02:00:00;9.32;;;8.45;;
10657;SDS011;5377;43.276;26.930;2023-07-13T02:02:29;9.32;;;8.43;;
10657;SDS011;5377;43.276;26.930;2023-07-13T02:04:56;9.60;;;8.70;;
10657;SDS011;5377;43.276;26.930;2023-07-13T02:07:23;11.77;;;10.57;;
10657;SDS011;5377;43.276;26.930;2023-07-13T02:09:50;18.70;;;12.57;;
10657;SDS011;5377;43.276;26.930;2023-07-13T02:12:17;27.05;;;24.20;;
10657;SDS011;5377;43.276;26.930;2023-07-13T02:14:45;140.80;;;99.03;;
10657;SDS011;5377;43.276;26.930;2023-07-13T02:17:13;92.45;;;44.15;;
10657;SDS011;5377;43.276;26.930;2023-07-13T02:19:40;87.90;;;36.58;;
10657;SDS011;5377;43.276;26.930;2023-07-13T02:22:07;47.72;;;23.77;;
10657;SDS011;5377;43.276;26.930;2023-07-13T02:24:34;48.70;;;22.73;;
10657;SDS011;5377;43.276;26.930;2023-07-13T02:27:01;54.90;;;22.77;;
10657;SDS011;5377;43.276;26.930;2023-07-13T02:29:27;50.83;;;20.63;;
10657;SDS011;5377;43.276;26.930;2023-07-13T02:31:56;23.70;;;14.45;;
10657;SDS011;5377;43.276;26.930;2023-07-13T02:34:22;11.85;;;10.63;;
10657;SDS011;5377;43.276;26.930;2023-07-13T02:36:49;20.83;;;11.27;;
10657;SDS011;5377;43.276;26.930;2023-07-13T02:39:16;14.95;;;11.18;;
10657;SDS011;5377;43.276;26.930;2023-07-13T02:41:43;13.93;;;10.93;;
10657;SDS011;5377;43.276;26.930;2023-07-13T02:44:12;13.63;;;10.75;;
10657;SDS011;5377;43.276;26.930;2023-07-13T02:46:39;11.23;;;10.07;;
10657;SDS011;5377;43.276;26.930;2023-07-13T02:49:07;15.73;;;14.20;;
10657;SDS011;5377;43.276;26.930;2023-07-13T02:51:34;20.73;;;17.45;;
10657;SDS011;5377;43.276;26.930;2023-07-13T02:54:01;17.20;;;13.70;;
10657;SDS011;5377;43.276;26.930;2023-07-13T02:56:28;20.75;;;17.30;;
10657;SDS011;5377;43.276;26.930;2023-07-13T02:58:56;18.45;;;16.52;;
10657;SDS011;5377;43.276;26.930;2023-07-13T03:01:24;14.25;;;12.65;;
10657;SDS011;5377;43.276;26.930;2023-07-13T03:03:51;15.25;;;13.25;;
10657;SDS011;5377;43.276;26.930;2023-07-13T03:06:20;12.88;;;11.68;;
10657;SDS011;5377;43.276;26.930;2023-07-13T03:08:48;14.27;;;11.35;;
10657;SDS011;5377;43.276;26.930;2023-07-13T03:11:17;16.35;;;11.75;;
10657;SDS011;5377;43.276;26.930;2023-07-13T03:13:45;12.52;;;11.23;;
10657;SDS011;5377;43.276;26.930;2023-07-13T03:16:12;11.82;;;10.68;;
10657;SDS011;5377;43.276;26.930;2023-07-13T03:18:41;12.88;;;11.05;;
10657;SDS011;5377;43.276;26.930;2023-07-13T03:21:08;24.95;;;20.98;;
10657;SDS011;5377;43.276;26.930;2023-07-13T03:23:36;21.63;;;19.08;;
10657;SDS011;5377;43.276;26.930;2023-07-13T03:26:04;31.45;;;28.15;;
10657;SDS011;5377;43.276;26.930;2023-07-13T03:28:34;21.20;;;19.00;;
10657;SDS011;5377;43.276;26.930;2023-07-13T03:31:01;16.90;;;15.10;;
10657;SDS011;5377;43.276;26.930;2023-07-13T03:33:29;16.25;;;14.60;;
10657;SDS011;5377;43.276;26.930;2023-07-13T03:35:56;19.55;;;14.65;;
10657;SDS011;5377;43.276;26.930;2023-07-13T03:38:23;15.90;;;14.30;;
10657;SDS011;5377;43.276;26.930;2023-07-13T03:40:52;20.23;;;13.85;;
10657;SDS011;5377;43.276;26.930;2023-07-13T03:43:19;17.50;;;12.95;;
10657;SDS011;5377;43.276;26.930;2023-07-13T03:45:46;15.80;;;13.23;;
10657;SDS011;5377;43.276;26.930;2023-07-13T03:48:14;18.15;;;13.95;;
10657;SDS011;5377;43.276;26.930;2023-07-13T03:50:41;18.65;;;13.73;;
10657;SDS011;5377;43.276;26.930;2023-07-13T03:53:08;15.13;;;13.57;;
10657;SDS011;5377;43.276;26.930;2023-07-13T03:55:35;16.52;;;12.90;;
10657;SDS011;5377;43.276;26.930;2023-07-13T04:00:52;17.60;;;14.68;;
10657;SDS011;5377;43.276;26.930;2023-07-13T04:03:20;14.98;;;13.10;;
10657;SDS011;5377;43.276;26.930;2023-07-13T04:05:47;14.30;;;12.77;;
10657;SDS011;5377;43.276;26.930;2023-07-13T04:08:14;15.18;;;13.57;;
10657;SDS011;5377;43.276;26.930;2023-07-13T04:11:04;13.10;;;11.82;;
10657;SDS011;5377;43.276;26.930;2023-07-13T04:13:37;14.68;;;12.48;;
10657;SDS011;5377;43.276;26.930;2023-07-13T04:16:04;13.63;;;12.05;;
10657;SDS011;5377;43.276;26.930;2023-07-13T04:18:30;17.05;;;12.23;;
10657;SDS011;5377;43.276;26.930;2023-07-13T04:20:57;17.13;;;13.75;;
10657;SDS011;5377;43.276;26.930;2023-07-13T04:23:24;25.10;;;12.55;;
10657;SDS011;5377;43.276;26.930;2023-07-13T04:25:52;26.40;;;12.20;;
10657;SDS011;5377;43.276;26.930;2023-07-13T04:28:20;22.80;;;12.40;;
10657;SDS011;5377;43.276;26.930;2023-07-13T04:30:49;16.13;;;11.20;;
10657;SDS011;5377;43.276;26.930;2023-07-13T04:33:16;17.00;;;11.60;;
10657;SDS011;5377;43.276;26.930;2023-07-13T04:35:47;24.75;;;12.25;;
10657;SDS011;5377;43.276;26.930;2023-07-13T04:38:14;22.67;;;11.48;;
10657;SDS011;5377;43.276;26.930;2023-07-13T04:40:42;16.35;;;9.75;;
10657;SDS011;5377;43.276;26.930;2023-07-13T04:43:09;11.57;;;9.80;;
10657;SDS011;5377;43.276;26.930;2023-07-13T04:45:36;15.57;;;11.00;;
10657;SDS011;5377;43.276;26.930;2023-07-13T04:48:05;14.70;;;10.52;;
10657;SDS011;5377;43.276;26.930;2023-07-13T04:50:32;17.70;;;11.63;;
10657;SDS011;5377;43.276;26.930;2023-07-13T04:52:59;11.70;;;10.63;;
10657;SDS011;5377;43.276;26.930;2023-07-13T04:55:25;25.38;;;12.27;;
10657;SDS011;5377;43.276;26.930;2023-07-13T04:57:55;11.55;;;10.43;;
10657;SDS011;5377;43.276;26.930;2023-07-13T05:00:23;22.70;;;11.68;;
10657;SDS011;5377;43.276;26.930;2023-07-13T05:02:51;19.10;;;11.27;;
10657;SDS011;5377;43.276;26.930;2023-07-13T05:05:20;14.57;;;10.48;;
10657;SDS011;5377;43.276;26.930;2023-07-13T05:07:46;14.25;;;11.75;;
10657;SDS011;5377;43.276;26.930;2023-07-13T05:10:13;17.90;;;11.10;;
10657;SDS011;5377;43.276;26.930;2023-07-13T05:12:40;14.57;;;11.00;;
10657;SDS011;5377;43.276;26.930;2023-07-13T05:15:07;16.58;;;10.73;;
10657;SDS011;5377;43.276;26.930;2023-07-13T05:17:34;26.08;;;14.32;;
10657;SDS011;5377;43.276;26.930;2023-07-13T05:20:01;14.80;;;11.48;;
10657;SDS011;5377;43.276;26.930;2023-07-13T05:22:30;12.25;;;11.10;;
10657;SDS011;5377;43.276;26.930;2023-07-13T05:24:57;16.63;;;12.88;;
10657;SDS011;5377;43.276;26.930;2023-07-13T05:27:24;16.67;;;14.10;;
10657;SDS011;5377;43.276;26.930;2023-07-13T05:29:51;18.70;;;11.82;;
10657;SDS011;5377;43.276;26.930;2023-07-13T05:32:18;21.20;;;12.55;;
10657;SDS011;5377;43.276;26.930;2023-07-13T05:34:45;18.80;;;11.57;;
10657;SDS011;5377;43.276;26.930;2023-07-13T05:37:12;14.63;;;11.75;;
10657;SDS011;5377;43.276;26.930;2023-07-13T05:39:40;13.57;;;10.57;;
10657;SDS011;5377;43.276;26.930;2023-07-13T05:42:07;14.23;;;10.88;;
10657;SDS011;5377;43.276;26.930;2023-07-13T05:44:34;22.50;;;12.57;;
10657;SDS011;5377;43.276;26.930;2023-07-13T05:47:00;22.73;;;14.05;;
10657;SDS011;5377;43.276;26.930;2023-07-13T05:49:27;20.08;;;12.65;;
10657;SDS011;5377;43.276;26.930;2023-07-13T05:51:56;18.35;;;12.23;;
10657;SDS011;5377;43.276;26.930;2023-07-13T05:54:22;14.63;;;11.20;;
10657;SDS011;5377;43.276;26.930;2023-07-13T05:56:51;16.40;;;11.45;;
10657;SDS011;5377;43.276;26.930;2023-07-13T05:59:18;21.73;;;11.07;;
10657;SDS011;5377;43.276;26.930;2023-07-13T06:01:45;15.95;;;11.27;;
10657;SDS011;5377;43.276;26.930;2023-07-13T06:04:11;15.95;;;11.55;;
10657;SDS011;5377;43.276;26.930;2023-07-13T06:06:38;27.05;;;13.73;;
10657;SDS011;5377;43.276;26.930;2023-07-13T06:09:05;17.52;;;13.57;;
10657;SDS011;5377;43.276;26.930;2023-07-13T06:11:32;23.92;;;15.00;;
10657;SDS011;5377;43.276;26.930;2023-07-13T06:14:01;26.27;;;14.07;;
10657;SDS011;5377;43.276;26.930;2023-07-13T06:16:29;26.75;;;14.48;;
10657;SDS011;5377;43.276;26.930;2023-07-13T06:18:56;35.85;;;14.45;;
10657;SDS011;5377;43.276;26.930;2023-07-13T06:21:23;28.45;;;15.90;;
10657;SDS011;5377;43.276;26.930;2023-07-13T06:23:50;25.02;;;15.90;;
10657;SDS011;5377;43.276;26.930;2023-07-13T06:26:18;29.55;;;15.25;;
10657;SDS011;5377;43.276;26.930;2023-07-13T06:28:46;24.65;;;15.15;;
10657;SDS011;5377;43.276;26.930;2023-07-13T06:31:14;22.00;;;14.55;;
10657;SDS011;5377;43.276;26.930;2023-07-13T06:33:41;25.27;;;14.82;;
10657;SDS011;5377;43.276;26.930;2023-07-13T06:36:09;22.52;;;14.38;;
10657;SDS011;5377;43.276;26.930;2023-07-13T06:38:36;30.60;;;14.70;;
10657;SDS011;5377;43.276;26.930;2023-07-13T06:41:03;22.88;;;13.73;;
10657;SDS011;5377;43.276;26.930;2023-07-13T06:43:31;23.30;;;13.77;;
10657;SDS011;5377;43.276;26.930;2023-07-13T06:45:58;23.13;;;13.00;;
10657;SDS011;5377;43.276;26.930;2023-07-13T06:48:26;20.88;;;14.10;;
10657;SDS011;5377;43.276;26.930;2023-07-13T06:50:54;28.23;;;13.80;;
10657;SDS011;5377;43.276;26.930;2023-07-13T06:53:21;14.13;;;12.73;;
10657;SDS011;5377;43.276;26.930;2023-07-13T06:55:48;15.00;;;13.43;;
10657;SDS011;5377;43.276;26.930;2023-07-13T06:58:16;17.40;;;12.63;;
10657;SDS011;5377;43.276;26.930;2023-07-13T07:00:44;14.70;;;13.13;;
10657;SDS011;5377;43.276;26.930;2023-07-13T07:03:12;21.23;;;13.82;;
10657;SDS011;5377;43.276;26.930;2023-07-13T07:05:40;14.18;;;12.75;;
10657;SDS011;5377;43.276;26.930;2023-07-13T07:08:07;15.35;;;13.32;;
10657;SDS011;5377;43.276;26.930;2023-07-13T07:10:34;17.90;;;14.75;;
10657;SDS011;5377;43.276;26.930;2023-07-13T07:13:02;18.75;;;13.48;;
10657;SDS011;5377;43.276;26.930;2023-07-13T07:15:30;16.52;;;13.55;;
10657;SDS011;5377;43.276;26.930;2023-07-13T07:17:57;15.73;;;13.45;;
10657;SDS011;5377;43.276;26.930;2023-07-13T07:20:23;23.83;;;16.83;;
10657;SDS011;5377;43.276;26.930;2023-07-13T07:22:52;15.85;;;14.10;;
10657;SDS011;5377;43.276;26.930;2023-07-13T07:25:19;15.05;;;13.65;;
10657;SDS011;5377;43.276;26.930;2023-07-13T07:27:46;18.38;;;14.05;;
10657;SDS011;5377;43.276;26.930;2023-07-13T07:30:13;15.25;;;13.65;;
10657;SDS011;5377;43.276;26.930;2023-07-13T07:32:40;13.88;;;12.65;;
10657;SDS011;5377;43.276;26.930;2023-07-13T07:35:08;15.43;;;13.40;;
10657;SDS011;5377;43.276;26.930;2023-07-13T07:37:35;15.27;;;13.73;;
10657;SDS011;5377;43.276;26.930;2023-07-13T07:40:04;18.52;;;14.43;;
10657;SDS011;5377;43.276;26.930;2023-07-13T07:42:33;14.80;;;13.25;;
10657;SDS011;5377;43.276;26.930;2023-07-13T07:44:59;15.60;;;13.68;;
10657;SDS011;5377;43.276;26.930;2023-07-13T07:47:27;14.50;;;13.30;;
10657;SDS011;5377;43.276;26.930;2023-07-13T07:49:54;13.93;;;12.55;;
10657;SDS011;5377;43.276;26.930;2023-07-13T07:52:20;14.75;;;13.13;;
10657;SDS011;5377;43.276;26.930;2023-07-13T07:54:47;14.65;;;13.10;;
10657;SDS011;5377;43.276;26.930;2023-07-13T07:57:15;15.48;;;13.82;;
10657;SDS011;5377;43.276;26.930;2023-07-13T07:59:42;15.80;;;12.88;;
10657;SDS011;5377;43.276;26.930;2023-07-13T08:02:09;14.55;;;12.95;;
10657;SDS011;5377;43.276;26.930;2023-07-13T08:04:37;15.77;;;12.25;;
10657;SDS011;5377;43.276;26.930;2023-07-13T08:07:04;18.17;;;13.57;;
10657;SDS011;5377;43.276;26.930;2023-07-13T08:09:31;15.30;;;13.13;;
10657;SDS011;5377;43.276;26.930;2023-07-13T08:11:58;14.18;;;12.77;;
10657;SDS011;5377;43.276;26.930;2023-07-13T08:14:27;13.18;;;11.98;;
10657;SDS011;5377;43.276;26.930;2023-07-13T08:16:54;16.77;;;12.90;;
10657;SDS011;5377;43.276;26.930;2023-07-13T08:19:21;12.15;;;11.05;;
10657;SDS011;5377;43.276;26.930;2023-07-13T08:21:48;12.63;;;11.25;;
10657;SDS011;5377;43.276;26.930;2023-07-13T08:24:15;17.33;;;12.32;;
10657;SDS011;5377;43.276;26.930;2023-07-13T08:26:43;13.70;;;11.90;;
10657;SDS011;5377;43.276;26.930;2023-07-13T08:29:11;12.55;;;11.38;;
10657;SDS011;5377;43.276;26.930;2023-07-13T08:31:39;13.90;;;11.80;;
10657;SDS011;5377;43.276;26.930;2023-07-13T08:34:06;12.25;;;11.27;;
10657;SDS011;5377;43.276;26.930;2023-07-13T08:36:33;11.18;;;10.27;;
10657;SDS011;5377;43.276;26.930;2023-07-13T08:39:00;11.65;;;10.10;;
10657;SDS011;5377;43.276;26.930;2023-07-13T08:41:27;11.23;;;10.10;;
10657;SDS011;5377;43.276;26.930;2023-07-13T08:43:56;10.82;;;9.80;;
10657;SDS011;5377;43.276;26.930;2023-07-13T08:46:25;11.20;;;10.27;;
10657;SDS011;5377;43.276;26.930;2023-07-13T08:48:58;11.18;;;9.93;;
10657;SDS011;5377;43.276;26.930;2023-07-13T08:51:31;11.55;;;9.90;;
10657;SDS011;5377;43.276;26.930;2023-07-13T08:54:09;11.02;;;10.00;;
10657;SDS011;5377;43.276;26.930;2023-07-13T08:56:43;8.93;;;8.02;;
10657;SDS011;5377;43.276;26.930;2023-07-13T08:59:13;12.20;;;8.75;;
10657;SDS011;5377;43.276;26.930;2023-07-13T09:04:40;4.88;;;4.45;;
10657;SDS011;5377;43.276;26.930;2023-07-13T09:07:13;6.97;;;4.82;;
10657;SDS011;5377;43.276;26.930;2023-07-13T09:09:48;5.53;;;4.50;;
10657;SDS011;5377;43.276;26.930;2023-07-13T09:12:23;5.60;;;5.10;;
10657;SDS011;5377;43.276;26.930;2023-07-13T09:14:57;8.40;;;5.82;;
10657;SDS011;5377;43.276;26.930;2023-07-13T09:17:26;6.15;;;5.18;;
10657;SDS011;5377;43.276;26.930;2023-07-13T09:19:58;11.73;;;5.53;;
10657;SDS011;5377;43.276;26.930;2023-07-13T09:22:33;4.82;;;4.35;;
10657;SDS011;5377;43.276;26.930;2023-07-13T09:25:04;6.65;;;4.88;;
10657;SDS011;5377;43.276;26.930;2023-07-13T09:27:48;6.22;;;4.32;;
10657;SDS011;5377;43.276;26.930;2023-07-13T09:30:24;9.40;;;4.63;;
10657;SDS011;5377;43.276;26.930;2023-07-13T09:32:57;11.10;;;4.20;;
10657;SDS011;5377;43.276;26.930;2023-07-13T09:35:26;7.40;;;3.83;;
10657;SDS011;5377;43.276;26.930;2023-07-13T09:37:57;5.40;;;3.70;;
10657;SDS011;5377;43.276;26.930;2023-07-13T09:40:28;10.27;;;4.45;;
10657;SDS011;5377;43.276;26.930;2023-07-13T09:43:04;8.60;;;5.53;;
10657;SDS011;5377;43.276;26.930;2023-07-13T09:45:36;9.90;;;4.68;;
10657;SDS011;5377;43.276;26.930;2023-07-13T09:48:05;6.25;;;4.57;;
10657;SDS011;5377;43.276;26.930;2023-07-13T09:50:35;6.18;;;4.43;;
10657;SDS011;5377;43.276;26.930;2023-07-13T09:53:02;5.38;;;4.80;;
10657;SDS011;5377;43.276;26.930;2023-07-13T09:55:30;8.00;;;4.72;;
10657;SDS011;5377;43.276;26.930;2023-07-13T09:58:02;8.18;;;4.32;;
10657;SDS011;5377;43.276;26.930;2023-07-13T10:00:31;6.85;;;3.97;;
10657;SDS011;5377;43.276;26.930;2023-07-13T10:02:59;11.35;;;4.28;;
10657;SDS011;5377;43.276;26.930;2023-07-13T10:05:32;7.32;;;4.10;;
10657;SDS011;5377;43.276;26.930;2023-07-13T10:08:08;4.13;;;3.67;;
10657;SDS011;5377;43.276;26.930;2023-07-13T10:10:43;7.85;;;4.05;;
10657;SDS011;5377;43.276;26.930;2023-07-13T10:13:21;6.85;;;4.57;;
10657;SDS011;5377;43.276;26.930;2023-07-13T10:15:53;5.20;;;4.00;;
10657;SDS011;5377;43.276;26.930;2023-07-13T10:18:21;5.07;;;3.17;;
10657;SDS011;5377;43.276;26.930;2023-07-13T10:20:51;6.82;;;4.60;;
10657;SDS011;5377;43.276;26.930;2023-07-13T10:23:27;5.00;;;4.50;;
10657;SDS011;5377;43.276;26.930;2023-07-13T10:25:58;6.30;;;4.40;;
10657;SDS011;5377;43.276;26.930;2023-07-13T10:28:27;6.40;;;4.10;;
10657;SDS011;5377;43.276;26.930;2023-07-13T10:30:56;4.60;;;4.13;;
10657;SDS011;5377;43.276;26.930;2023-07-13T10:33:26;5.10;;;3.78;;
10657;SDS011;5377;43.276;26.930;2023-07-13T10:35:56;5.00;;;4.35;;
10657;SDS011;5377;43.276;26.930;2023-07-13T10:38:30;7.53;;;4.30;;
10657;SDS011;5377;43.276;26.930;2023-07-13T10:40:58;7.85;;;5.15;;
10657;SDS011;5377;43.276;26.930;2023-07-13T10:43:31;4.80;;;4.10;;
10657;SDS011;5377;43.276;26.930;2023-07-13T10:46:02;5.45;;;4.55;;
10657;SDS011;5377;43.276;26.930;2023-07-13T10:48:32;7.72;;;4.97;;
10657;SDS011;5377;43.276;26.930;2023-07-13T10:51:03;5.80;;;5.07;;
10657;SDS011;5377;43.276;26.930;2023-07-13T10:53:32;5.95;;;5.25;;
10657;SDS011;5377;43.276;26.930;2023-07-13T10:56:01;6.15;;;5.43;;
10657;SDS011;5377;43.276;26.930;2023-07-13T10:58:34;7.43;;;5.65;;
10657;SDS011;5377;43.276;26.930;2023-07-13T11:01:04;9.00;;;5.85;;
10657;SDS011;5377;43.276;26.930;2023-07-13T11:03:36;5.60;;;5.05;;
10657;SDS011;5377;43.276;26.930;2023-07-13T11:06:11;8.00;;;5.15;;
10657;SDS011;5377;43.276;26.930;2023-07-13T11:08:51;15.48;;;7.75;;
10657;SDS011;5377;43.276;26.930;2023-07-13T11:11:32;7.20;;;6.05;;
10657;SDS011;5377;43.276;26.930;2023-07-13T11:14:02;8.82;;;6.38;;
10657;SDS011;5377;43.276;26.930;2023-07-13T11:16:37;12.73;;;5.90;;
10657;SDS011;5377;43.276;26.930;2023-07-13T11:22:15;6.53;;;4.97;;
10657;SDS011;5377;43.276;26.930;2023-07-13T11:25:00;6.63;;;5.45;;
10657;SDS011;5377;43.276;26.930;2023-07-13T11:27:44;10.45;;;9.35;;
10657;SDS011;5377;43.276;26.930;2023-07-13T11:30:22;11.45;;;7.38;;
10657;SDS011;5377;43.276;26.930;2023-07-13T11:33:13;5.20;;;4.63;;
10657;SDS011;5377;43.276;26.930;2023-07-13T11:35:50;8.35;;;6.03;;
10657;SDS011;5377;43.276;26.930;2023-07-13T11:38:28;5.05;;;4.47;;
10657;SDS011;5377;43.276;26.930;2023-07-13T11:40:59;8.50;;;5.35;;
10657;SDS011;5377;43.276;26.930;2023-07-13T11:43:29;5.25;;;4.80;;
10657;SDS011;5377;43.276;26.930;2023-07-13T11:45:58;6.65;;;5.13;;
10657;SDS011;5377;43.276;26.930;2023-07-13T11:48:26;6.03;;;5.45;;
10657;SDS011;5377;43.276;26.930;2023-07-13T11:50:56;7.15;;;4.63;;
10657;SDS011;5377;43.276;26.930;2023-07-13T11:53:28;7.97;;;5.25;;
10657;SDS011;5377;43.276;26.930;2023-07-13T11:56:00;6.25;;;4.47;;
10657;SDS011;5377;43.276;26.930;2023-07-13T11:58:27;8.73;;;5.57;;
10657;SDS011;5377;43.276;26.930;2023-07-13T12:00:55;11.90;;;5.63;;
10657;SDS011;5377;43.276;26.930;2023-07-13T12:03:26;7.72;;;5.63;;
10657;SDS011;5377;43.276;26.930;2023-07-13T12:05:57;7.63;;;5.30;;
10657;SDS011;5377;43.276;26.930;2023-07-13T12:08:27;6.55;;;5.10;;
10657;SDS011;5377;43.276;26.930;2023-07-13T12:11:03;7.22;;;4.75;;
10657;SDS011;5377;43.276;26.930;2023-07-13T12:13:38;6.03;;;4.80;;
10657;SDS011;5377;43.276;26.930;2023-07-13T12:16:12;11.45;;;5.00;;
10657;SDS011;5377;43.276;26.930;2023-07-13T12:18:42;7.32;;;4.65;;
10657;SDS011;5377;43.276;26.930;2023-07-13T12:21:14;6.38;;;4.47;;
10657;SDS011;5377;43.276;26.930;2023-07-13T12:23:47;7.57;;;4.47;;
10657;SDS011;5377;43.276;26.930;2023-07-13T12:26:15;7.20;;;4.53;;
10657;SDS011;5377;43.276;26.930;2023-07-13T12:28:45;5.65;;;4.65;;
10657;SDS011;5377;43.276;26.930;2023-07-13T12:31:22;6.63;;;4.32;;
10657;SDS011;5377;43.276;26.930;2023-07-13T12:33:59;4.78;;;4.32;;
10657;SDS011;5377;43.276;26.930;2023-07-13T12:36:29;7.45;;;4.40;;
10657;SDS011;5377;43.276;26.930;2023-07-13T12:39:00;10.52;;;4.57;;
10657;SDS011;5377;43.276;26.930;2023-07-13T12:41:33;8.50;;;4.93;;
10657;SDS011;5377;43.276;26.930;2023-07-13T12:44:00;5.60;;;4.78;;
10657;SDS011;5377;43.276;26.930;2023-07-13T12:46:27;7.80;;;4.72;;
10657;SDS011;5377;43.276;26.930;2023-07-13T12:48:56;9.77;;;5.18;;
10657;SDS011;5377;43.276;26.930;2023-07-13T12:51:25;8.50;;;4.30;;
10657;SDS011;5377;43.276;26.930;2023-07-13T12:53:56;6.03;;;4.05;;
10657;SDS011;5377;43.276;26.930;2023-07-13T12:56:27;8.88;;;4.85;;
10657;SDS011;5377;43.276;26.930;2023-07-13T12:58:57;6.43;;;5.00;;
10657;SDS011;5377;43.276;26.930;2023-07-13T13:01:29;7.68;;;4.40;;
10657;SDS011;5377;43.276;26.930;2023-07-13T13:04:00;8.55;;;4.75;;
10657;SDS011;5377;43.276;26.930;2023-07-13T13:06:31;4.45;;;4.03;;
10657;SDS011;5377;43.276;26.930;2023-07-13T13:08:58;6.47;;;4.18;;
10657;SDS011;5377;43.276;26.930;2023-07-13T13:11:28;7.35;;;5.05;;
10657;SDS011;5377;43.276;26.930;2023-07-13T13:13:57;7.95;;;4.45;;
10657;SDS011;5377;43.276;26.930;2023-07-13T13:16:29;6.50;;;3.83;;
10657;SDS011;5377;43.276;26.930;2023-07-13T13:18:59;7.07;;;4.60;;
10657;SDS011;5377;43.276;26.930;2023-07-13T13:21:28;8.82;;;4.40;;
10657;SDS011;5377;43.276;26.930;2023-07-13T13:23:55;4.93;;;4.22;;
10657;SDS011;5377;43.276;26.930;2023-07-13T13:26:22;9.10;;;4.57;;
10657;SDS011;5377;43.276;26.930;2023-07-13T13:28:50;4.53;;;4.13;;
10657;SDS011;5377;43.276;26.930;2023-07-13T13:31:17;5.22;;;4.28;;
10657;SDS011;5377;43.276;26.930;2023-07-13T13:33:44;10.27;;;4.50;;
10657;SDS011;5377;43.276;26.930;2023-07-13T13:36:16;5.28;;;4.32;;
10657;SDS011;5377;43.276;26.930;2023-07-13T13:38:44;11.85;;;5.05;;
10657;SDS011;5377;43.276;26.930;2023-07-13T13:41:12;9.10;;;5.05;;
10657;SDS011;5377;43.276;26.930;2023-07-13T13:43:40;5.50;;;4.75;;
10657;SDS011;5377;43.276;26.930;2023-07-13T13:46:13;5.05;;;4.32;;
10657;SDS011;5377;43.276;26.930;2023-07-13T13:48:42;5.05;;;3.85;;
10657;SDS011;5377;43.276;26.930;2023-07-13T13:51:14;5.35;;;4.40;;
10657;SDS011;5377;43.276;26.930;2023-07-13T13:53:43;5.18;;;4.68;;
10657;SDS011;5377;43.276;26.930;2023-07-13T13:56:10;4.22;;;3.88;;
10657;SDS011;5377;43.276;26.930;2023-07-13T13:58:38;5.45;;;3.95;;
10657;SDS011;5377;43.276;26.930;2023-07-13T14:01:08;5.55;;;3.75;;
10657;SDS011;5377;43.276;26.930;2023-07-13T14:03:42;5.30;;;4.60;;
10657;SDS011;5377;43.276;26.930;2023-07-13T14:06:11;4.22;;;3.72;;
10657;SDS011;5377;43.276;26.930;2023-07-13T14:08:38;4.53;;;3.53;;
10657;SDS011;5377;43.276;26.930;2023-07-13T14:11:07;11.98;;;5.68;;
10657;SDS011;5377;43.276;26.930;2023-07-13T14:13:38;6.70;;;4.00;;
10657;SDS011;5377;43.276;26.930;2023-07-13T14:16:09;7.20;;;4.70;;
10657;SDS011;5377;43.276;26.930;2023-07-13T14:18:39;5.90;;;4.78;;
10657;SDS011;5377;43.276;26.930;2023-07-13T14:21:08;4.55;;;3.97;;
10657;SDS011;5377;43.276;26.930;2023-07-13T14:23:38;7.65;;;5.03;;
10657;SDS011;5377;43.276;26.930;2023-07-13T14:26:08;5.07;;;4.38;;
10657;SDS011;5377;43.276;26.930;2023-07-13T14:28:38;6.97;;;4.63;;
10657;SDS011;5377;43.276;26.930;2023-07-13T14:31:08;61.33;;;11.30;;
10657;SDS011;5377;43.276;26.930;2023-07-13T14:33:36;105.45;;;24.02;;
10657;SDS011;5377;43.276;26.930;2023-07-13T14:36:05;11.48;;;6.75;;
10657;SDS011;5377;43.276;26.930;2023-07-13T14:38:47;6.65;;;4.45;;
10657;SDS011;5377;43.276;26.930;2023-07-13T14:41:15;5.50;;;4.57;;
10657;SDS011;5377;43.276;26.930;2023-07-13T14:43:41;13.60;;;5.78;;
10657;SDS011;5377;43.276;26.930;2023-07-13T14:46:09;6.38;;;4.45;;
10657;SDS011;5377;43.276;26.930;2023-07-13T14:48:48;6.10;;;3.80;;
10657;SDS011;5377;43.276;26.930;2023-07-13T14:51:16;6.22;;;4.18;;
10657;SDS011;5377;43.276;26.930;2023-07-13T14:53:43;6.88;;;3.97;;
10657;SDS011;5377;43.276;26.930;2023-07-13T14:56:10;5.45;;;4.60;;
10657;SDS011;5377;43.276;26.930;2023-07-13T14:58:37;6.57;;;5.55;;